sensor_id;sensor_type;location;lat;lon;timestamp;P1;durP1;ratioP1;P2;durP2;ratioP2
46719;SDS011;32452;51.382;-0.002;2023-04-03T00:00:01;7.13;;;1.83;;
46719;SDS011;32452;51.382;-0.002;2023-04-03T00:02:47;8.25;;;2.05;;
46719;SDS011;32452;51.382;-0.002;2023-04-03T00:05:34;7.53;;;1.90;;
46719;SDS011;32452;51.382;-0.002;2023-04-03T00:08:19;11.48;;;2.35;;
46719;SDS011;32452;51.382;-0.002;2023-04-03T00:11:05;9.50;;;2.28;;
46719;SDS011;32452;51.382;-0.002;2023-04-03T00:13:52;10.10;;;2.17;;
46719;SDS011;32452;51.382;-0.002;2023-04-03T00:16:37;10.60;;;1.67;;
46719;SDS011;32452;51.382;-0.002;2023-04-03T00:19:23;9.70;;;1.80;;
46719;SDS011;32452;51.382;-0.002;2023-04-03T00:22:08;9.68;;;2.05;;
46719;SDS011;32452;51.382;-0.002;2023-04-03T00:24:54;9.10;;;2.22;;
46719;SDS011;32452;51.382;-0.002;2023-04-03T00:27:40;16.70;;;2.72;;
46719;SDS011;32452;51.382;-0.002;2023-04-03T00:30:26;10.10;;;2.05;;
46719;SDS011;32452;51.382;-0.002;2023-04-03T00:33:12;9.80;;;2.55;;
46719;SDS011;32452;51.382;-0.002;2023-04-03T00:35:58;13.10;;;2.58;;
46719;SDS011;32452;51.382;-0.002;2023-04-03T00:38:44;10.82;;;2.58;;
46719;SDS011;32452;51.382;-0.002;2023-04-03T00:41:29;12.65;;;2.63;;
46719;SDS011;32452;51.382;-0.002;2023-04-03T00:44:20;9.80;;;2.25;;
46719;SDS011;32452;51.382;-0.002;2023-04-03T00:47:07;11.10;;;2.55;;
46719;SDS011;32452;51.382;-0.002;2023-04-03T00:49:55;12.98;;;2.42;;
46719;SDS011;32452;51.382;-0.002;2023-04-03T00:52:41;8.02;;;2.00;;
46719;SDS011;32452;51.382;-0.002;2023-04-03T00:55:27;10.80;;;3.08;;
46719;SDS011;32452;51.382;-0.002;2023-04-03T00:58:14;9.32;;;2.30;;
46719;SDS011;32452;51.382;-0.002;2023-04-03T01:01:03;15.98;;;3.05;;
46719;SDS011;32452;51.382;-0.002;2023-04-03T01:03:53;9.63;;;2.00;;
46719;SDS011;32452;51.382;-0.002;2023-04-03T01:06:39;13.43;;;2.58;;
46719;SDS011;32452;51.382;-0.002;2023-04-03T01:09:24;16.95;;;2.33;;
46719;SDS011;32452;51.382;-0.002;2023-04-03T01:15:18;21.08;;;3.15;;
46719;SDS011;32452;51.382;-0.002;2023-04-03T01:18:09;10.43;;;2.45;;
46719;SDS011;32452;51.382;-0.002;2023-04-03T01:23:56;11.55;;;2.65;;
46719;SDS011;32452;51.382;-0.002;2023-04-03T01:26:46;11.50;;;2.53;;
46719;SDS011;32452;51.382;-0.002;2023-04-03T01:29:33;11.75;;;2.30;;
46719;SDS011;32452;51.382;-0.002;2023-04-03T01:32:19;14.63;;;2.13;;
46719;SDS011;32452;51.382;-0.002;2023-04-03T01:35:06;10.57;;;2.50;;
46719;SDS011;32452;51.382;-0.002;2023-04-03T01:37:54;11.38;;;3.45;;
46719;SDS011;32452;51.382;-0.002;2023-04-03T01:40:39;11.98;;;2.42;;
46719;SDS011;32452;51.382;-0.002;2023-04-03T01:43:24;13.65;;;3.00;;
46719;SDS011;32452;51.382;-0.002;2023-04-03T01:46:10;9.23;;;2.38;;
46719;SDS011;32452;51.382;-0.002;2023-04-03T01:48:57;11.40;;;2.97;;
46719;SDS011;32452;51.382;-0.002;2023-04-03T01:51:43;10.82;;;3.15;;
46719;SDS011;32452;51.382;-0.002;2023-04-03T01:54:28;11.77;;;2.33;;
46719;SDS011;32452;51.382;-0.002;2023-04-03T01:57:14;13.07;;;2.58;;
46719;SDS011;32452;51.382;-0.002;2023-04-03T02:00:00;8.45;;;2.85;;
46719;SDS011;32452;51.382;-0.002;2023-04-03T02:02:45;8.13;;;2.00;;
46719;SDS011;32452;51.382;-0.002;2023-04-03T02:05:31;12.18;;;2.22;;
46719;SDS011;32452;51.382;-0.002;2023-04-03T02:08:17;9.98;;;2.50;;
46719;SDS011;32452;51.382;-0.002;2023-04-03T02:11:05;12.30;;;2.33;;
46719;SDS011;32452;51.382;-0.002;2023-04-03T02:13:51;12.30;;;2.72;;
46719;SDS011;32452;51.382;-0.002;2023-04-03T02:16:37;6.53;;;2.15;;
46719;SDS011;32452;51.382;-0.002;2023-04-03T02:19:23;12.52;;;2.42;;
46719;SDS011;32452;51.382;-0.002;2023-04-03T02:22:08;8.82;;;2.05;;
46719;SDS011;32452;51.382;-0.002;2023-04-03T02:24:54;15.60;;;2.22;;
46719;SDS011;32452;51.382;-0.002;2023-04-03T02:27:39;10.88;;;2.60;;
46719;SDS011;32452;51.382;-0.002;2023-04-03T02:30:25;10.20;;;2.30;;
46719;SDS011;32452;51.382;-0.002;2023-04-03T02:33:11;15.40;;;2.95;;
46719;SDS011;32452;51.382;-0.002;2023-04-03T02:35:57;9.82;;;2.10;;
46719;SDS011;32452;51.382;-0.002;2023-04-03T02:38:43;10.63;;;4.15;;
46719;SDS011;32452;51.382;-0.002;2023-04-03T02:41:30;8.63;;;1.98;;
46719;SDS011;32452;51.382;-0.002;2023-04-03T02:44:19;11.40;;;3.30;;
46719;SDS011;32452;51.382;-0.002;2023-04-03T02:47:05;10.90;;;2.38;;
46719;SDS011;32452;51.382;-0.002;2023-04-03T02:49:50;7.72;;;1.83;;
46719;SDS011;32452;51.382;-0.002;2023-04-03T02:52:37;7.35;;;2.00;;
46719;SDS011;32452;51.382;-0.002;2023-04-03T02:55:23;12.13;;;2.22;;
46719;SDS011;32452;51.382;-0.002;2023-04-03T02:58:08;4.68;;;1.83;;
46719;SDS011;32452;51.382;-0.002;2023-04-03T03:00:54;7.50;;;2.20;;
46719;SDS011;32452;51.382;-0.002;2023-04-03T03:03:39;9.60;;;2.25;;
46719;SDS011;32452;51.382;-0.002;2023-04-03T03:06:25;11.10;;;2.10;;
46719;SDS011;32452;51.382;-0.002;2023-04-03T03:09:10;9.50;;;2.60;;
46719;SDS011;32452;51.382;-0.002;2023-04-03T03:11:56;12.15;;;2.30;;
46719;SDS011;32452;51.382;-0.002;2023-04-03T03:14:41;12.00;;;3.38;;
46719;SDS011;32452;51.382;-0.002;2023-04-03T03:17:28;10.48;;;2.33;;
46719;SDS011;32452;51.382;-0.002;2023-04-03T03:20:13;8.52;;;2.45;;
46719;SDS011;32452;51.382;-0.002;2023-04-03T03:22:59;12.85;;;2.35;;
46719;SDS011;32452;51.382;-0.002;2023-04-03T03:25:45;10.63;;;2.03;;
46719;SDS011;32452;51.382;-0.002;2023-04-03T03:28:31;5.50;;;2.40;;
46719;SDS011;32452;51.382;-0.002;2023-04-03T03:31:17;15.10;;;5.47;;
46719;SDS011;32452;51.382;-0.002;2023-04-03T03:34:03;7.40;;;2.55;;
46719;SDS011;32452;51.382;-0.002;2023-04-03T03:36:48;7.40;;;2.05;;
46719;SDS011;32452;51.382;-0.002;2023-04-03T03:39:33;9.30;;;2.38;;
46719;SDS011;32452;51.382;-0.002;2023-04-03T03:42:19;13.10;;;2.17;;
46719;SDS011;32452;51.382;-0.002;2023-04-03T03:45:05;9.85;;;2.42;;
46719;SDS011;32452;51.382;-0.002;2023-04-03T03:47:50;7.88;;;2.50;;
46719;SDS011;32452;51.382;-0.002;2023-04-03T03:50:36;12.70;;;2.72;;
46719;SDS011;32452;51.382;-0.002;2023-04-03T03:53:21;11.57;;;2.47;;
46719;SDS011;32452;51.382;-0.002;2023-04-03T03:56:07;9.38;;;3.08;;
46719;SDS011;32452;51.382;-0.002;2023-04-03T03:58:53;9.70;;;2.05;;
46719;SDS011;32452;51.382;-0.002;2023-04-03T04:01:38;9.63;;;2.10;;
46719;SDS011;32452;51.382;-0.002;2023-04-03T04:04:24;8.88;;;2.53;;
46719;SDS011;32452;51.382;-0.002;2023-04-03T04:07:10;8.55;;;2.03;;
46719;SDS011;32452;51.382;-0.002;2023-04-03T04:09:55;9.95;;;2.92;;
46719;SDS011;32452;51.382;-0.002;2023-04-03T04:12:41;8.10;;;2.20;;
46719;SDS011;32452;51.382;-0.002;2023-04-03T04:15:27;7.18;;;2.20;;
46719;SDS011;32452;51.382;-0.002;2023-04-03T04:18:12;10.65;;;2.33;;
46719;SDS011;32452;51.382;-0.002;2023-04-03T04:20:57;12.48;;;2.17;;
46719;SDS011;32452;51.382;-0.002;2023-04-03T04:23:43;9.05;;;2.53;;
46719;SDS011;32452;51.382;-0.002;2023-04-03T04:26:28;9.90;;;2.30;;
46719;SDS011;32452;51.382;-0.002;2023-04-03T04:29:14;9.20;;;1.88;;
46719;SDS011;32452;51.382;-0.002;2023-04-03T04:31:59;11.63;;;3.40;;
46719;SDS011;32452;51.382;-0.002;2023-04-03T04:34:45;12.35;;;2.50;;
46719;SDS011;32452;51.382;-0.002;2023-04-03T04:37:30;11.55;;;2.45;;
46719;SDS011;32452;51.382;-0.002;2023-04-03T04:40:16;10.18;;;2.25;;
46719;SDS011;32452;51.382;-0.002;2023-04-03T04:43:01;7.88;;;2.35;;
46719;SDS011;32452;51.382;-0.002;2023-04-03T04:45:47;8.52;;;2.17;;
46719;SDS011;32452;51.382;-0.002;2023-04-03T04:48:33;6.47;;;1.92;;
46719;SDS011;32452;51.382;-0.002;2023-04-03T04:51:19;7.75;;;2.30;;
46719;SDS011;32452;51.382;-0.002;2023-04-03T04:54:05;10.20;;;2.92;;
46719;SDS011;32452;51.382;-0.002;2023-04-03T04:56:51;8.88;;;2.33;;
46719;SDS011;32452;51.382;-0.002;2023-04-03T04:59:36;8.15;;;2.63;;
46719;SDS011;32452;51.382;-0.002;2023-04-03T05:02:22;11.07;;;2.35;;
46719;SDS011;32452;51.382;-0.002;2023-04-03T05:05:08;10.02;;;2.60;;
46719;SDS011;32452;51.382;-0.002;2023-04-03T05:07:54;12.07;;;3.65;;
46719;SDS011;32452;51.382;-0.002;2023-04-03T05:10:39;10.93;;;2.80;;
46719;SDS011;32452;51.382;-0.002;2023-04-03T05:13:26;18.40;;;3.17;;
46719;SDS011;32452;51.382;-0.002;2023-04-03T05:16:11;12.98;;;2.47;;
46719;SDS011;32452;51.382;-0.002;2023-04-03T05:18:57;8.70;;;2.97;;
46719;SDS011;32452;51.382;-0.002;2023-04-03T05:21:42;11.30;;;2.92;;
46719;SDS011;32452;51.382;-0.002;2023-04-03T05:24:28;11.50;;;2.85;;
46719;SDS011;32452;51.382;-0.002;2023-04-03T05:27:13;16.67;;;3.88;;
46719;SDS011;32452;51.382;-0.002;2023-04-03T05:29:59;10.77;;;2.40;;
46719;SDS011;32452;51.382;-0.002;2023-04-03T05:32:46;7.63;;;2.58;;
46719;SDS011;32452;51.382;-0.002;2023-04-03T05:35:32;11.52;;;3.05;;
46719;SDS011;32452;51.382;-0.002;2023-04-03T05:38:18;11.48;;;2.90;;
46719;SDS011;32452;51.382;-0.002;2023-04-03T05:41:04;9.15;;;2.75;;
46719;SDS011;32452;51.382;-0.002;2023-04-03T05:43:50;10.48;;;2.47;;
46719;SDS011;32452;51.382;-0.002;2023-04-03T05:46:35;8.00;;;2.65;;
46719;SDS011;32452;51.382;-0.002;2023-04-03T05:49:21;13.10;;;2.95;;
46719;SDS011;32452;51.382;-0.002;2023-04-03T05:52:23;14.15;;;3.30;;
46719;SDS011;32452;51.382;-0.002;2023-04-03T05:55:11;10.52;;;2.65;;
46719;SDS011;32452;51.382;-0.002;2023-04-03T05:57:57;12.45;;;3.80;;
46719;SDS011;32452;51.382;-0.002;2023-04-03T06:00:43;12.90;;;2.55;;
46719;SDS011;32452;51.382;-0.002;2023-04-03T06:03:28;10.65;;;3.08;;
46719;SDS011;32452;51.382;-0.002;2023-04-03T06:06:15;8.98;;;2.50;;
46719;SDS011;32452;51.382;-0.002;2023-04-03T06:09:01;14.93;;;3.35;;
46719;SDS011;32452;51.382;-0.002;2023-04-03T06:11:47;12.02;;;2.70;;
46719;SDS011;32452;51.382;-0.002;2023-04-03T06:14:33;13.15;;;2.97;;
46719;SDS011;32452;51.382;-0.002;2023-04-03T06:17:19;13.63;;;3.75;;
46719;SDS011;32452;51.382;-0.002;2023-04-03T06:20:05;10.15;;;3.00;;
46719;SDS011;32452;51.382;-0.002;2023-04-03T06:22:51;12.88;;;3.90;;
46719;SDS011;32452;51.382;-0.002;2023-04-03T06:25:37;18.13;;;4.03;;
46719;SDS011;32452;51.382;-0.002;2023-04-03T06:28:22;31.83;;;4.57;;
46719;SDS011;32452;51.382;-0.002;2023-04-03T06:31:10;8.43;;;3.35;;
46719;SDS011;32452;51.382;-0.002;2023-04-03T06:33:56;11.13;;;3.50;;
46719;SDS011;32452;51.382;-0.002;2023-04-03T06:36:41;14.30;;;3.83;;
46719;SDS011;32452;51.382;-0.002;2023-04-03T06:39:28;11.32;;;3.08;;
46719;SDS011;32452;51.382;-0.002;2023-04-03T06:42:14;12.73;;;3.63;;
46719;SDS011;32452;51.382;-0.002;2023-04-03T06:45:00;12.88;;;3.20;;
46719;SDS011;32452;51.382;-0.002;2023-04-03T06:47:45;9.65;;;3.03;;
46719;SDS011;32452;51.382;-0.002;2023-04-03T06:50:31;12.70;;;3.80;;
46719;SDS011;32452;51.382;-0.002;2023-04-03T06:53:17;14.93;;;3.95;;
46719;SDS011;32452;51.382;-0.002;2023-04-03T06:56:02;11.50;;;3.45;;
46719;SDS011;32452;51.382;-0.002;2023-04-03T06:58:48;15.20;;;3.53;;
46719;SDS011;32452;51.382;-0.002;2023-04-03T07:01:36;10.82;;;4.38;;
46719;SDS011;32452;51.382;-0.002;2023-04-03T07:04:22;13.82;;;4.00;;
46719;SDS011;32452;51.382;-0.002;2023-04-03T07:07:07;10.85;;;4.00;;
46719;SDS011;32452;51.382;-0.002;2023-04-03T07:09:53;10.25;;;3.03;;
46719;SDS011;32452;51.382;-0.002;2023-04-03T07:12:38;12.43;;;3.47;;
46719;SDS011;32452;51.382;-0.002;2023-04-03T07:15:24;16.73;;;3.58;;
46719;SDS011;32452;51.382;-0.002;2023-04-03T07:18:10;11.38;;;3.25;;
46719;SDS011;32452;51.382;-0.002;2023-04-03T07:20:56;13.23;;;3.38;;
46719;SDS011;32452;51.382;-0.002;2023-04-03T07:23:42;11.68;;;3.70;;
46719;SDS011;32452;51.382;-0.002;2023-04-03T07:26:27;11.45;;;2.83;;
46719;SDS011;32452;51.382;-0.002;2023-04-03T07:29:12;11.65;;;2.90;;
46719;SDS011;32452;51.382;-0.002;2023-04-03T07:31:58;11.80;;;2.85;;
46719;SDS011;32452;51.382;-0.002;2023-04-03T07:34:45;11.73;;;3.45;;
46719;SDS011;32452;51.382;-0.002;2023-04-03T07:37:30;13.23;;;3.45;;
46719;SDS011;32452;51.382;-0.002;2023-04-03T07:40:17;9.68;;;3.58;;
46719;SDS011;32452;51.382;-0.002;2023-04-03T07:43:04;13.82;;;3.70;;
46719;SDS011;32452;51.382;-0.002;2023-04-03T07:45:50;12.25;;;3.28;;
46719;SDS011;32452;51.382;-0.002;2023-04-03T07:48:36;10.73;;;3.35;;
46719;SDS011;32452;51.382;-0.002;2023-04-03T07:51:21;12.85;;;3.33;;
46719;SDS011;32452;51.382;-0.002;2023-04-03T07:54:08;11.55;;;4.00;;
46719;SDS011;32452;51.382;-0.002;2023-04-03T07:56:54;9.73;;;3.67;;
46719;SDS011;32452;51.382;-0.002;2023-04-03T07:59:51;10.88;;;3.10;;
46719;SDS011;32452;51.382;-0.002;2023-04-03T08:03:25;11.40;;;3.13;;
46719;SDS011;32452;51.382;-0.002;2023-04-03T08:06:56;9.30;;;3.10;;
46719;SDS011;32452;51.382;-0.002;2023-04-03T08:10:50;11.50;;;3.13;;
46719;SDS011;32452;51.382;-0.002;2023-04-03T08:13:46;8.15;;;3.42;;
46719;SDS011;32452;51.382;-0.002;2023-04-03T08:16:32;9.90;;;3.58;;
46719;SDS011;32452;51.382;-0.002;2023-04-03T08:19:21;13.60;;;3.40;;
46719;SDS011;32452;51.382;-0.002;2023-04-03T08:22:13;12.40;;;3.72;;
46719;SDS011;32452;51.382;-0.002;2023-04-03T08:25:01;11.60;;;3.33;;
46719;SDS011;32452;51.382;-0.002;2023-04-03T08:27:46;15.65;;;5.10;;
46719;SDS011;32452;51.382;-0.002;2023-04-03T08:30:32;12.70;;;4.10;;
46719;SDS011;32452;51.382;-0.002;2023-04-03T08:33:18;11.05;;;4.05;;
46719;SDS011;32452;51.382;-0.002;2023-04-03T08:36:04;14.98;;;4.18;;
46719;SDS011;32452;51.382;-0.002;2023-04-03T08:38:52;12.98;;;4.47;;
46719;SDS011;32452;51.382;-0.002;2023-04-03T08:41:40;15.30;;;4.65;;
46719;SDS011;32452;51.382;-0.002;2023-04-03T08:47:55;11.23;;;3.67;;
46719;SDS011;32452;51.382;-0.002;2023-04-03T08:50:52;17.58;;;4.15;;
46719;SDS011;32452;51.382;-0.002;2023-04-03T08:53:43;14.07;;;4.03;;
46719;SDS011;32452;51.382;-0.002;2023-04-03T08:56:39;14.32;;;4.78;;
46719;SDS011;32452;51.382;-0.002;2023-04-03T08:59:29;13.85;;;4.03;;
46719;SDS011;32452;51.382;-0.002;2023-04-03T09:05:19;13.48;;;4.97;;
46719;SDS011;32452;51.382;-0.002;2023-04-03T09:08:24;11.70;;;4.80;;
46719;SDS011;32452;51.382;-0.002;2023-04-03T09:23:52;13.73;;;4.80;;
46719;SDS011;32452;51.382;-0.002;2023-04-03T09:26:42;15.60;;;5.95;;
46719;SDS011;32452;51.382;-0.002;2023-04-03T09:32:48;11.43;;;5.43;;
46719;SDS011;32452;51.382;-0.002;2023-04-03T09:35:44;12.20;;;5.90;;
46719;SDS011;32452;51.382;-0.002;2023-04-03T09:39:27;14.63;;;5.72;;
46719;SDS011;32452;51.382;-0.002;2023-04-03T09:42:19;14.13;;;5.05;;
46719;SDS011;32452;51.382;-0.002;2023-04-03T09:45:18;10.93;;;5.28;;
46719;SDS011;32452;51.382;-0.002;2023-04-03T09:48:12;10.70;;;5.38;;
46719;SDS011;32452;51.382;-0.002;2023-04-03T09:51:03;13.10;;;5.07;;
46719;SDS011;32452;51.382;-0.002;2023-04-03T09:53:49;14.48;;;5.75;;
46719;SDS011;32452;51.382;-0.002;2023-04-03T09:56:34;14.40;;;5.53;;
46719;SDS011;32452;51.382;-0.002;2023-04-03T09:59:20;12.20;;;4.82;;
46719;SDS011;32452;51.382;-0.002;2023-04-03T10:08:21;11.00;;;4.75;;
46719;SDS011;32452;51.382;-0.002;2023-04-03T10:11:16;11.68;;;5.47;;
46719;SDS011;32452;51.382;-0.002;2023-04-03T10:14:03;11.80;;;4.47;;
46719;SDS011;32452;51.382;-0.002;2023-04-03T10:16:57;10.50;;;4.80;;
46719;SDS011;32452;51.382;-0.002;2023-04-03T10:19:55;9.63;;;4.25;;
46719;SDS011;32452;51.382;-0.002;2023-04-03T10:26:29;10.40;;;4.43;;
46719;SDS011;32452;51.382;-0.002;2023-04-03T10:42:42;9.38;;;4.05;;
46719;SDS011;32452;51.382;-0.002;2023-04-03T10:45:29;13.93;;;4.18;;
46719;SDS011;32452;51.382;-0.002;2023-04-03T10:54:24;9.35;;;3.85;;
46719;SDS011;32452;51.382;-0.002;2023-04-03T10:57:14;9.05;;;4.07;;
46719;SDS011;32452;51.382;-0.002;2023-04-03T11:00:02;9.75;;;3.83;;
46719;SDS011;32452;51.382;-0.002;2023-04-03T11:02:57;12.02;;;3.70;;
46719;SDS011;32452;51.382;-0.002;2023-04-03T11:05:49;8.48;;;3.53;;
46719;SDS011;32452;51.382;-0.002;2023-04-03T11:08:46;8.88;;;3.63;;
46719;SDS011;32452;51.382;-0.002;2023-04-03T11:11:41;11.38;;;3.30;;
46719;SDS011;32452;51.382;-0.002;2023-04-03T11:14:33;8.50;;;3.15;;
46719;SDS011;32452;51.382;-0.002;2023-04-03T11:17:24;8.77;;;3.80;;
46719;SDS011;32452;51.382;-0.002;2023-04-03T11:20:30;9.20;;;3.50;;
46719;SDS011;32452;51.382;-0.002;2023-04-03T11:23:20;9.82;;;3.47;;
46719;SDS011;32452;51.382;-0.002;2023-04-03T11:26:15;8.55;;;3.25;;
46719;SDS011;32452;51.382;-0.002;2023-04-03T11:29:08;5.57;;;3.20;;
46719;SDS011;32452;51.382;-0.002;2023-04-03T11:32:29;9.30;;;3.30;;
46719;SDS011;32452;51.382;-0.002;2023-04-03T11:35:45;6.53;;;2.67;;
46719;SDS011;32452;51.382;-0.002;2023-04-03T11:38:36;5.45;;;2.92;;
46719;SDS011;32452;51.382;-0.002;2023-04-03T11:41:31;7.32;;;2.70;;
46719;SDS011;32452;51.382;-0.002;2023-04-03T11:44:34;7.03;;;2.88;;
46719;SDS011;32452;51.382;-0.002;2023-04-03T11:47:43;8.35;;;3.28;;
46719;SDS011;32452;51.382;-0.002;2023-04-03T11:53:26;6.93;;;2.78;;
46719;SDS011;32452;51.382;-0.002;2023-04-03T12:01:59;7.45;;;3.40;;
46719;SDS011;32452;51.382;-0.002;2023-04-03T12:04:55;7.28;;;3.15;;
46719;SDS011;32452;51.382;-0.002;2023-04-03T12:08:30;7.07;;;2.83;;
46719;SDS011;32452;51.382;-0.002;2023-04-03T12:11:31;5.00;;;2.30;;
46719;SDS011;32452;51.382;-0.002;2023-04-03T12:14:23;7.47;;;2.75;;
46719;SDS011;32452;51.382;-0.002;2023-04-03T12:17:15;8.55;;;3.03;;
46719;SDS011;32452;51.382;-0.002;2023-04-03T12:20:45;6.43;;;3.20;;
46719;SDS011;32452;51.382;-0.002;2023-04-03T12:23:58;6.45;;;2.60;;
46719;SDS011;32452;51.382;-0.002;2023-04-03T12:30:05;8.35;;;3.13;;
46719;SDS011;32452;51.382;-0.002;2023-04-03T12:36:21;7.97;;;3.47;;
46719;SDS011;32452;51.382;-0.002;2023-04-03T12:39:48;9.25;;;3.15;;
46719;SDS011;32452;51.382;-0.002;2023-04-03T12:42:55;10.25;;;3.55;;
46719;SDS011;32452;51.382;-0.002;2023-04-03T12:46:04;7.25;;;2.92;;
46719;SDS011;32452;51.382;-0.002;2023-04-03T12:48:53;6.15;;;2.55;;
46719;SDS011;32452;51.382;-0.002;2023-04-03T12:51:42;7.55;;;3.67;;
46719;SDS011;32452;51.382;-0.002;2023-04-03T12:54:35;5.63;;;2.85;;
46719;SDS011;32452;51.382;-0.002;2023-04-03T12:57:24;7.95;;;2.65;;
46719;SDS011;32452;51.382;-0.002;2023-04-03T13:00:18;6.43;;;2.78;;
46719;SDS011;32452;51.382;-0.002;2023-04-03T13:03:24;7.32;;;2.58;;
46719;SDS011;32452;51.382;-0.002;2023-04-03T13:06:39;7.57;;;2.78;;
46719;SDS011;32452;51.382;-0.002;2023-04-03T13:09:27;7.60;;;2.97;;
46719;SDS011;32452;51.382;-0.002;2023-04-03T13:12:15;6.85;;;2.53;;
46719;SDS011;32452;51.382;-0.002;2023-04-03T13:15:11;5.85;;;2.58;;
46719;SDS011;32452;51.382;-0.002;2023-04-03T13:18:03;8.55;;;3.00;;
46719;SDS011;32452;51.382;-0.002;2023-04-03T13:20:49;7.45;;;2.85;;
46719;SDS011;32452;51.382;-0.002;2023-04-03T13:23:36;6.68;;;3.40;;
46719;SDS011;32452;51.382;-0.002;2023-04-03T13:26:26;7.70;;;3.08;;
46719;SDS011;32452;51.382;-0.002;2023-04-03T13:29:23;7.38;;;2.50;;
46719;SDS011;32452;51.382;-0.002;2023-04-03T13:32:20;6.90;;;2.08;;
46719;SDS011;32452;51.382;-0.002;2023-04-03T13:38:25;6.68;;;2.63;;
46719;SDS011;32452;51.382;-0.002;2023-04-03T13:47:19;4.97;;;2.38;;
46719;SDS011;32452;51.382;-0.002;2023-04-03T13:50:15;8.20;;;2.97;;
46719;SDS011;32452;51.382;-0.002;2023-04-03T13:53:11;7.07;;;2.70;;
46719;SDS011;32452;51.382;-0.002;2023-04-03T13:58:55;6.90;;;2.83;;
46719;SDS011;32452;51.382;-0.002;2023-04-03T14:04:58;8.43;;;3.38;;
46719;SDS011;32452;51.382;-0.002;2023-04-03T14:07:46;7.18;;;2.72;;
46719;SDS011;32452;51.382;-0.002;2023-04-03T14:10:33;6.72;;;2.80;;
46719;SDS011;32452;51.382;-0.002;2023-04-03T14:13:18;6.53;;;3.00;;
46719;SDS011;32452;51.382;-0.002;2023-04-03T14:16:05;9.90;;;3.17;;
46719;SDS011;32452;51.382;-0.002;2023-04-03T14:18:59;7.97;;;2.92;;
46719;SDS011;32452;51.382;-0.002;2023-04-03T14:21:45;7.80;;;3.20;;
46719;SDS011;32452;51.382;-0.002;2023-04-03T14:24:30;8.43;;;2.70;;
46719;SDS011;32452;51.382;-0.002;2023-04-03T14:27:21;8.68;;;3.03;;
46719;SDS011;32452;51.382;-0.002;2023-04-03T14:30:14;8.63;;;2.92;;
46719;SDS011;32452;51.382;-0.002;2023-04-03T14:33:03;7.65;;;2.97;;
46719;SDS011;32452;51.382;-0.002;2023-04-03T14:35:49;6.25;;;3.10;;
46719;SDS011;32452;51.382;-0.002;2023-04-03T14:38:34;8.10;;;2.78;;
46719;SDS011;32452;51.382;-0.002;2023-04-03T14:41:21;11.02;;;3.90;;
46719;SDS011;32452;51.382;-0.002;2023-04-03T14:44:08;7.35;;;3.25;;
46719;SDS011;32452;51.382;-0.002;2023-04-03T14:46:54;10.82;;;3.55;;
46719;SDS011;32452;51.382;-0.002;2023-04-03T14:49:41;9.70;;;4.30;;
46719;SDS011;32452;51.382;-0.002;2023-04-03T14:52:29;8.60;;;3.60;;
46719;SDS011;32452;51.382;-0.002;2023-04-03T14:55:18;10.25;;;3.90;;
46719;SDS011;32452;51.382;-0.002;2023-04-03T14:58:11;12.73;;;4.43;;
46719;SDS011;32452;51.382;-0.002;2023-04-03T15:01:02;11.68;;;3.90;;
46719;SDS011;32452;51.382;-0.002;2023-04-03T15:03:48;10.50;;;3.80;;
46719;SDS011;32452;51.382;-0.002;2023-04-03T15:06:35;12.25;;;3.85;;
46719;SDS011;32452;51.382;-0.002;2023-04-03T15:09:22;11.00;;;3.72;;
46719;SDS011;32452;51.382;-0.002;2023-04-03T15:12:09;9.43;;;4.20;;
46719;SDS011;32452;51.382;-0.002;2023-04-03T15:14:55;7.97;;;3.42;;
46719;SDS011;32452;51.382;-0.002;2023-04-03T15:17:49;7.43;;;3.88;;
46719;SDS011;32452;51.382;-0.002;2023-04-03T15:20:40;10.07;;;4.00;;
46719;SDS011;32452;51.382;-0.002;2023-04-03T15:23:28;10.05;;;3.60;;
46719;SDS011;32452;51.382;-0.002;2023-04-03T15:26:14;10.75;;;3.90;;
46719;SDS011;32452;51.382;-0.002;2023-04-03T15:29:01;10.13;;;4.10;;
46719;SDS011;32452;51.382;-0.002;2023-04-03T15:31:48;10.40;;;4.40;;
46719;SDS011;32452;51.382;-0.002;2023-04-03T15:34:38;7.53;;;3.05;;
46719;SDS011;32452;51.382;-0.002;2023-04-03T15:37:24;9.63;;;3.55;;
46719;SDS011;32452;51.382;-0.002;2023-04-03T15:40:10;8.57;;;3.13;;
46719;SDS011;32452;51.382;-0.002;2023-04-03T15:42:58;9.52;;;3.60;;
46719;SDS011;32452;51.382;-0.002;2023-04-03T15:45:43;10.70;;;3.85;;
46719;SDS011;32452;51.382;-0.002;2023-04-03T15:48:30;8.30;;;3.50;;
46719;SDS011;32452;51.382;-0.002;2023-04-03T15:51:17;9.18;;;3.38;;
46719;SDS011;32452;51.382;-0.002;2023-04-03T15:54:02;6.88;;;2.85;;
46719;SDS011;32452;51.382;-0.002;2023-04-03T15:56:48;7.97;;;3.03;;
46719;SDS011;32452;51.382;-0.002;2023-04-03T15:59:34;6.00;;;2.80;;
46719;SDS011;32452;51.382;-0.002;2023-04-03T16:02:20;8.23;;;2.70;;
46719;SDS011;32452;51.382;-0.002;2023-04-03T16:05:06;8.07;;;2.47;;
46719;SDS011;32452;51.382;-0.002;2023-04-03T16:07:54;7.88;;;2.88;;
46719;SDS011;32452;51.382;-0.002;2023-04-03T16:10:41;6.50;;;2.55;;
46719;SDS011;32452;51.382;-0.002;2023-04-03T16:13:27;7.00;;;2.38;;
46719;SDS011;32452;51.382;-0.002;2023-04-03T16:16:13;7.18;;;2.20;;
46719;SDS011;32452;51.382;-0.002;2023-04-03T16:18:59;7.38;;;2.15;;
46719;SDS011;32452;51.382;-0.002;2023-04-03T16:21:44;5.03;;;1.98;;
46719;SDS011;32452;51.382;-0.002;2023-04-03T16:24:31;7.97;;;3.00;;
46719;SDS011;32452;51.382;-0.002;2023-04-03T16:27:17;7.05;;;2.67;;
46719;SDS011;32452;51.382;-0.002;2023-04-03T16:30:02;6.57;;;2.83;;
46719;SDS011;32452;51.382;-0.002;2023-04-03T16:32:49;7.60;;;3.17;;
46719;SDS011;32452;51.382;-0.002;2023-04-03T16:35:44;11.05;;;3.33;;
46719;SDS011;32452;51.382;-0.002;2023-04-03T16:38:31;7.82;;;3.17;;
46719;SDS011;32452;51.382;-0.002;2023-04-03T16:41:17;9.15;;;3.85;;
46719;SDS011;32452;51.382;-0.002;2023-04-03T16:44:05;5.63;;;2.85;;
46719;SDS011;32452;51.382;-0.002;2023-04-03T16:46:52;6.90;;;2.80;;
46719;SDS011;32452;51.382;-0.002;2023-04-03T16:49:38;8.82;;;2.88;;
46719;SDS011;32452;51.382;-0.002;2023-04-03T16:52:24;6.63;;;2.47;;
46719;SDS011;32452;51.382;-0.002;2023-04-03T16:55:10;8.10;;;2.70;;
46719;SDS011;32452;51.382;-0.002;2023-04-03T16:57:55;7.82;;;2.83;;
46719;SDS011;32452;51.382;-0.002;2023-04-03T17:00:41;7.05;;;2.50;;
46719;SDS011;32452;51.382;-0.002;2023-04-03T17:03:27;6.90;;;2.90;;
46719;SDS011;32452;51.382;-0.002;2023-04-03T17:06:17;10.93;;;3.00;;
46719;SDS011;32452;51.382;-0.002;2023-04-03T17:09:05;5.65;;;2.35;;
46719;SDS011;32452;51.382;-0.002;2023-04-03T17:11:51;8.13;;;2.05;;
46719;SDS011;32452;51.382;-0.002;2023-04-03T17:14:37;9.63;;;2.42;;
46719;SDS011;32452;51.382;-0.002;2023-04-03T17:17:23;9.55;;;2.47;;
46719;SDS011;32452;51.382;-0.002;2023-04-03T17:20:11;8.23;;;2.67;;
46719;SDS011;32452;51.382;-0.002;2023-04-03T17:22:57;11.23;;;2.50;;
46719;SDS011;32452;51.382;-0.002;2023-04-03T17:25:42;8.60;;;2.03;;
46719;SDS011;32452;51.382;-0.002;2023-04-03T17:28:28;5.72;;;1.73;;
46719;SDS011;32452;51.382;-0.002;2023-04-03T17:31:14;7.07;;;1.80;;
46719;SDS011;32452;51.382;-0.002;2023-04-03T17:34:00;5.18;;;2.22;;
46719;SDS011;32452;51.382;-0.002;2023-04-03T17:36:46;6.85;;;2.08;;
46719;SDS011;32452;51.382;-0.002;2023-04-03T17:39:33;7.93;;;1.73;;
46719;SDS011;32452;51.382;-0.002;2023-04-03T17:42:18;6.80;;;1.80;;
46719;SDS011;32452;51.382;-0.002;2023-04-03T17:45:05;7.35;;;1.77;;
46719;SDS011;32452;51.382;-0.002;2023-04-03T17:47:54;7.22;;;1.75;;
46719;SDS011;32452;51.382;-0.002;2023-04-03T17:50:49;7.35;;;2.28;;
46719;SDS011;32452;51.382;-0.002;2023-04-03T17:53:35;8.75;;;3.35;;
46719;SDS011;32452;51.382;-0.002;2023-04-03T17:56:22;7.82;;;2.17;;
46719;SDS011;32452;51.382;-0.002;2023-04-03T17:59:10;8.30;;;1.77;;
46719;SDS011;32452;51.382;-0.002;2023-04-03T18:01:57;7.95;;;1.80;;
46719;SDS011;32452;51.382;-0.002;2023-04-03T18:04:43;8.68;;;2.17;;